Time;durP1;ratioP1;P1;durP2;ratioP2;P2;SDS_P1;SDS_P2;PMS_P1;PMS_P2;Temp;Humidity;BMP_temperature;BMP_pressure;BME280_temperature;BME280_humidity;BME280_pressure;Samples;Min_cycle;Max_cycle;Signal;HPM_P1;HPM_P2
2021/12/14 00:01:55;;;;;;;13.38;8.75;;;;;;;9.17;100.00;102428.25;10527389;28;20407;-65
2021/12/14 00:07:18;;;;;;;12.35;9.20;;;;;;;9.18;100.00;102418.72;10549447;28;20055;-66
2021/12/14 00:12:55;;;;;;;11.93;8.98;;;;;;;9.10;100.00;102421.56;10524809;28;20059;-65
2021/12/14 00:18:19;;;;;;;13.10;9.32;;;;;;;9.11;100.00;102423.25;10524387;28;20040;-65
2021/12/14 00:29:28;;;;;;;12.05;7.97;;;;;;;9.11;100.00;102418.06;10548124;28;20134;-65
2021/12/14 00:34:53;;;;;;;13.27;8.82;;;;;;;9.14;100.00;102417.97;10552484;28;20488;-65
2021/12/14 00:40:19;;;;;;;11.67;8.03;;;;;;;9.08;100.00;102420.75;10529223;28;20040;-65
2021/12/14 00:45:43;;;;;;;10.95;7.38;;;;;;;9.12;99.83;102424.97;10529660;28;20408;-66
2021/12/14 00:51:05;;;;;;;12.40;8.07;;;;;;;9.06;100.00;102425.16;10527703;28;20040;-66
2021/12/14 00:56:27;;;;;;;12.70;8.02;;;;;;;9.06;100.00;102424.31;10522545;28;20539;-65
2021/12/14 01:01:55;;;;;;;15.77;8.10;;;;;;;9.05;100.00;102428.66;10526479;28;20108;-65
2021/12/14 01:07:20;;;;;;;11.93;7.65;;;;;;;9.04;100.00;102439.13;10564279;28;20055;-65
2021/12/14 01:12:49;;;;;;;12.82;7.43;;;;;;;9.05;100.00;102428.66;10525693;28;20048;-66
2021/12/14 01:18:27;;;;;;;13.07;8.00;;;;;;;9.08;99.91;102427.72;10522109;28;20044;-66
2021/12/14 01:24:00;;;;;;;9.68;7.65;;;;;;;9.05;99.34;102427.81;10521741;28;20048;-64
2021/12/14 01:29:28;;;;;;;10.63;7.50;;;;;;;8.98;99.28;102416.78;10546359;28;20051;-65
2021/12/14 01:34:50;;;;;;;9.00;7.07;;;;;;;8.98;99.68;102415.91;10557214;28;20059;-66
2021/12/14 01:40:29;;;;;;;11.10;7.47;;;;;;;9.01;98.98;102406.28;10526808;28;20044;-66
2021/12/14 01:45:54;;;;;;;8.70;7.28;;;;;;;8.97;99.24;102399.47;10561758;28;20051;-66
2021/12/14 01:51:17;;;;;;;13.88;7.45;;;;;;;8.94;99.03;102389.16;10569784;27;20483;-65
2021/12/14 01:56:39;;;;;;;12.48;7.07;;;;;;;8.93;99.67;102378.81;10599987;27;20058;-65
2021/12/14 02:02:29;;;;;;;9.48;7.30;;;;;;;8.92;99.55;102364.09;10528264;28;20043;-65
2021/12/14 02:07:51;;;;;;;10.05;6.57;;;;;;;8.89;99.03;102349.44;10539745;28;20075;-66
2021/12/14 02:13:22;;;;;;;11.48;7.10;;;;;;;8.98;99.03;102343.94;10519777;28;20063;-65
2021/12/14 02:18:47;;;;;;;10.10;7.07;;;;;;;9.00;97.99;102325.69;10528851;28;20047;-65
2021/12/14 02:24:12;;;;;;;10.57;6.80;;;;;;;9.00;97.90;102323.94;10507361;28;20056;-65
2021/12/14 02:29:37;;;;;;;10.48;6.88;;;;;;;8.91;98.20;102326.84;10545685;28;20052;-65
2021/12/14 02:35:03;;;;;;;12.60;6.65;;;;;;;8.95;97.71;102325.00;10524372;28;20060;-65
2021/12/14 02:40:53;;;;;;;9.55;6.93;;;;;;;8.93;98.05;102337.22;10539649;28;20039;-66
2021/12/14 02:46:20;;;;;;;9.20;6.35;;;;;;;8.86;97.29;102339.16;10545826;28;20047;-66
2021/12/14 02:51:50;;;;;;;13.23;6.38;;;;;;;8.92;97.17;102348.50;10565166;28;20675;-66
2021/12/14 02:57:18;;;;;;;9.50;6.40;;;;;;;8.97;97.11;102347.44;10597415;27;20181;-65
2021/12/14 03:02:40;;;;;;;11.13;6.90;;;;;;;8.84;97.70;102346.16;10526005;28;20393;-65
2021/12/14 03:08:15;;;;;;;10.02;6.57;;;;;;;8.82;97.59;102342.75;10526592;28;20056;-66
2021/12/14 03:13:40;;;;;;;9.73;7.28;;;;;;;8.90;97.52;102360.72;10532962;28;20625;-66
2021/12/14 03:19:06;;;;;;;12.85;7.80;;;;;;;8.81;97.23;102351.47;10527044;28;20369;-65
2021/12/14 03:24:28;;;;;;;11.48;7.95;;;;;;;8.90;97.27;102361.53;10551195;27;20502;-66
2021/12/14 03:29:50;;;;;;;11.18;8.02;;;;;;;8.87;97.32;102351.28;10586336;27;20044;-65
2021/12/14 03:35:11;;;;;;;13.85;8.98;;;;;;;8.84;97.99;102346.16;10567385;28;20058;-65
2021/12/14 03:40:33;;;;;;;11.25;8.57;;;;;;;8.87;97.67;102340.88;10587776;28;20047;-66
2021/12/14 03:45:57;;;;;;;14.05;9.20;;;;;;;8.83;97.91;102335.78;10546732;27;20054;-65
2021/12/14 03:51:21;;;;;;;13.93;9.48;;;;;;;8.93;99.00;102334.59;10574811;27;20039;-66
2021/12/14 03:56:43;;;;;;;14.77;9.90;;;;;;;8.83;97.43;102326.25;10575736;27;20063;-65
2021/12/14 04:02:10;;;;;;;17.95;10.32;;;;;;;8.86;96.97;102323.56;10575202;27;20039;-65
2021/12/14 04:07:36;;;;;;;15.30;10.85;;;;;;;8.86;97.63;102333.09;10560236;28;20051;-66
2021/12/14 04:12:58;;;;;;;16.30;10.45;;;;;;;8.81;97.08;102322.00;10571639;28;20047;-66
2021/12/14 04:18:20;;;;;;;14.18;10.88;;;;;;;8.84;97.24;102329.69;10567945;28;20436;-66
2021/12/14 04:23:46;;;;;;;16.92;10.63;;;;;;;8.84;97.17;102320.16;10566681;28;20058;-66
2021/12/14 04:29:08;;;;;;;17.92;10.93;;;;;;;8.72;98.43;102325.78;10557007;28;20548;-66
2021/12/14 04:34:31;;;;;;;14.05;10.50;;;;;;;8.77;97.34;102329.06;10539604;28;20044;-66
2021/12/14 04:40:12;;;;;;;15.40;10.88;;;;;;;8.76;97.32;102329.94;10565675;28;20644;-66
2021/12/14 04:56:57;;;;;;;15.55;11.75;;;;;;;8.76;98.32;102316.94;10567321;28;20051;-66
2021/12/14 05:02:25;;;;;;;15.50;12.30;;;;;;;8.75;98.23;102312.66;10537001;28;20357;-66
2021/12/14 05:13:40;;;;;;;19.77;12.90;;;;;;;8.75;98.73;102304.84;10520962;28;20145;-66
2021/12/14 05:19:07;;;;;;;18.60;12.10;;;;;;;8.83;98.50;102302.84;10507739;28;20051;-66
2021/12/14 05:24:29;;;;;;;18.98;12.32;;;;;;;8.81;98.11;102309.84;10521649;28;20451;-66
2021/12/14 05:29:52;;;;;;;18.42;12.52;;;;;;;8.76;98.58;102306.56;10507288;28;20058;-65
2021/12/14 05:35:18;;;;;;;20.25;12.50;;;;;;;8.77;99.03;102303.06;10548286;28;20160;-66
2021/12/14 05:41:10;;;;;;;19.52;12.18;;;;;;;8.73;98.58;102298.84;10555280;28;20048;-66
2021/12/14 05:46:25;;;;;;;16.20;11.63;;;;;;;8.69;98.97;102315.47;10521080;28;20079;-66
2021/12/14 05:51:49;;;;;;;22.17;12.77;;;;;;;8.66;99.49;102309.50;10520078;28;20048;-65
2021/12/14 05:57:20;;;;;;;20.90;12.93;;;;;;;8.66;99.83;102307.78;10569593;28;20054;-66
2021/12/14 06:02:42;;;;;;;18.88;12.68;;;;;;;8.66;99.79;102315.56;10561696;28;20423;-65
2021/12/14 06:08:04;;;;;;;20.02;13.55;;;;;;;8.66;100.00;102333.75;10530097;28;20051;-66
2021/12/14 06:13:44;;;;;;;22.63;13.52;;;;;;;8.76;99.43;102332.56;10526003;28;20051;-66
2021/12/14 06:19:28;;;;;;;20.63;12.75;;;;;;;8.68;99.44;102339.75;10520158;28;20503;-66
2021/12/14 06:24:53;;;;;;;20.27;13.52;;;;;;;8.66;100.00;102345.88;10520363;28;20048;-65
2021/12/14 06:30:24;;;;;;;19.17;13.43;;;;;;;8.65;99.97;102345.06;10522774;28;20060;-66
2021/12/14 06:35:53;;;;;;;25.42;14.55;;;;;;;8.64;100.00;102345.94;10554190;28;20140;-66
2021/12/14 06:41:21;;;;;;;24.40;14.38;;;;;;;8.60;100.00;102341.75;10529433;28;20052;-66
2021/12/14 06:46:42;;;;;;;25.20;14.30;;;;;;;8.70;100.00;102337.97;10528094;28;20059;-65
2021/12/14 06:52:05;;;;;;;24.85;15.07;;;;;;;8.62;100.00;102344.31;10528294;28;20052;-66
2021/12/14 06:57:27;;;;;;;22.15;14.88;;;;;;;8.66;100.00;102351.97;10568277;28;20059;-66
2021/12/14 07:02:50;;;;;;;23.35;15.50;;;;;;;8.63;100.00;102356.41;10537488;28;20048;-65
2021/12/14 07:08:21;;;;;;;24.83;15.88;;;;;;;8.66;100.00;102354.56;10529796;28;20142;-65
2021/12/14 07:13:43;;;;;;;24.38;16.33;;;;;;;8.73;100.00;102356.03;10542677;28;20687;-66
2021/12/14 07:19:06;;;;;;;26.77;17.25;;;;;;;8.66;100.00;102364.09;10553386;28;20044;-66
2021/12/14 07:24:31;;;;;;;26.95;17.02;;;;;;;8.73;100.00;102363.00;10513299;28;20477;-66
2021/12/14 07:30:07;;;;;;;28.23;17.38;;;;;;;8.68;100.00;102352.75;10526290;28;20824;-65
2021/12/14 07:35:50;;;;;;;28.48;18.15;;;;;;;8.62;100.00;102365.94;10556526;28;20067;-66
2021/12/14 07:41:25;;;;;;;27.30;17.50;;;;;;;8.60;100.00;102357.34;10566134;28;20491;-66
2021/12/14 07:46:53;;;;;;;28.95;18.92;;;;;;;8.68;100.00;102368.34;10558870;28;20066;-66
2021/12/14 07:52:19;;;;;;;27.10;19.02;;;;;;;8.67;100.00;102384.84;10532823;28;20058;-65
2021/12/14 07:57:41;;;;;;;36.90;20.70;;;;;;;8.68;100.00;102391.75;10558147;28;20044;-66
2021/12/14 08:03:03;;;;;;;32.60;19.63;;;;;;;8.73;100.00;102405.44;10566001;28;20648;-66
2021/12/14 08:08:33;;;;;;;32.53;19.45;;;;;;;8.78;100.00;102419.16;10535432;28;20047;-66
2021/12/14 08:14:00;;;;;;;31.55;20.25;;;;;;;8.78;100.00;102424.34;10562203;28;20079;-66
2021/12/14 08:19:31;;;;;;;36.53;21.42;;;;;;;8.77;100.00;102409.66;10528793;28;20044;-66
2021/12/14 08:24:53;;;;;;;34.22;21.35;;;;;;;8.77;100.00;102417.44;10510549;28;20060;-67
2021/12/14 08:30:16;;;;;;;35.20;20.88;;;;;;;8.80;100.00;102412.16;10523443;28;20047;-67
2021/12/14 08:35:42;;;;;;;37.35;21.25;;;;;;;8.84;100.00;102413.78;10571697;28;20055;-67
2021/12/14 08:41:20;;;;;;;;;;;;;;;8.81;100.00;102411.25;10533640;28;20044;-67
2021/12/14 08:46:42;;;;;;;37.03;21.83;;;;;;;8.83;100.00;102426.78;10523427;28;19920;-67
2021/12/14 08:52:06;;;;;;;38.60;23.52;;;;;;;8.83;100.00;102413.78;10522470;28;20087;-67
2021/12/14 08:57:29;;;;;;;39.22;23.17;;;;;;;8.94;100.00;102425.56;10534762;28;20062;-67
2021/12/14 09:02:58;;;;;;;37.95;23.90;;;;;;;8.93;100.00;102418.66;10548150;28;20062;-67
2021/12/14 09:08:21;;;;;;;34.30;23.17;;;;;;;8.93;100.00;102418.66;10555504;27;20047;-67
2021/12/14 09:13:44;;;;;;;40.13;24.17;;;;;;;8.91;100.00;102425.66;10561145;27;20423;-67
2021/12/14 09:19:15;;;;;;;36.85;23.85;;;;;;;9.02;100.00;102422.72;10547465;27;20040;-67
2021/12/14 09:24:39;;;;;;;45.22;25.17;;;;;;;9.00;100.00;102420.19;10548014;28;20043;-67
2021/12/14 09:30:01;;;;;;;39.47;23.85;;;;;;;9.06;100.00;102421.72;10537686;27;20526;-67
2021/12/14 09:35:25;;;;;;;39.92;25.60;;;;;;;9.05;100.00;102418.25;10559297;27;20074;-66
2021/12/14 09:40:53;;;;;;;35.17;24.52;;;;;;;9.14;100.00;102412.75;10561666;28;20077;-66
2021/12/14 09:46:18;;;;;;;43.22;26.23;;;;;;;9.14;100.00;102407.56;10547323;28;20055;-66
2021/12/14 09:51:45;;;;;;;44.78;26.95;;;;;;;9.11;100.00;102402.47;10550188;28;20056;-64
2021/12/14 09:57:13;;;;;;;43.38;27.13;;;;;;;9.16;100.00;102399.69;10560135;27;20071;-67
2021/12/14 10:02:38;;;;;;;47.22;28.80;;;;;;;9.19;100.00;102404.78;10553403;28;20051;-66
2021/12/14 10:08:02;;;;;;;48.92;28.00;;;;;;;9.18;100.00;102411.72;10567321;28;20051;-67
2021/12/14 10:13:25;;;;;;;46.53;27.88;;;;;;;9.18;100.00;102414.34;10561483;28;20142;-67
2021/12/14 10:18:59;;;;;;;49.40;29.17;;;;;;;9.17;100.00;102417.84;10521963;28;20085;-67
2021/12/14 10:24:21;;;;;;;52.47;31.23;;;;;;;9.07;100.00;102420.81;10528085;28;20056;-67
2021/12/14 10:29:44;;;;;;;49.75;28.63;;;;;;;9.15;100.00;102419.66;10557871;28;20044;-67
2021/12/14 10:35:11;;;;;;;47.70;29.85;;;;;;;9.17;100.00;102427.41;10544975;28;20056;-67
2021/12/14 10:46:52;;;;;;;48.15;28.88;;;;;;;9.31;100.00;102433.88;10509322;28;20480;-67
2021/12/14 10:52:18;;;;;;;48.72;29.67;;;;;;;9.24;100.00;102434.97;10538287;28;20052;-65
2021/12/14 10:57:40;;;;;;;49.35;29.58;;;;;;;9.31;100.00;102436.47;10526626;28;20074;-66
2021/12/14 11:03:12;;;;;;;51.28;29.58;;;;;;;9.28;100.00;102436.56;10547390;28;20044;-66
2021/12/14 11:09:40;;;;;;;54.42;30.33;;;;;;;9.31;100.00;102441.69;10524344;28;20506;-66
2021/12/14 11:14:28;;;;;;;50.53;30.25;;;;;;;9.30;100.00;102445.19;10532770;28;20514;-67
2021/12/14 11:19:59;;;;;;;57.47;31.15;;;;;;;9.33;100.00;102434.63;10539096;28;20097;-67
2021/12/14 11:25:24;;;;;;;52.10;29.35;;;;;;;9.36;100.00;102439.75;10564111;28;20118;-67
2021/12/14 11:30:50;;;;;;;50.92;30.10;;;;;;;9.38;100.00;102424.94;10564976;28;20071;-65
2021/12/14 11:36:14;;;;;;;;;;;;;;;9.37;100.00;102432.81;10560357;28;20051;-66
2021/12/14 11:41:44;;;;;;;53.08;31.33;;;;;;;9.39;100.00;102424.03;10537831;28;19927;-65
2021/12/14 11:53:00;;;;;;;59.03;31.75;;;;;;;9.45;100.00;102426.44;10538107;28;20360;-64
2021/12/14 11:58:31;;;;;;;59.03;32.55;;;;;;;9.46;100.00;102422.91;10559575;28;20062;-65
2021/12/14 12:04:07;;;;;;;65.50;32.92;;;;;;;9.43;100.00;102417.84;10553384;28;20040;-66
2021/12/14 12:09:44;;;;;;;57.90;31.70;;;;;;;9.53;100.00;102412.22;10544594;28;20048;-65
2021/12/14 12:15:11;;;;;;;59.80;32.88;;;;;;;9.47;100.00;102411.59;10553084;27;20044;-66
2021/12/14 12:20:39;;;;;;;61.38;32.50;;;;;;;9.56;100.00;102416.50;10557553;28;20044;-66
2021/12/14 12:26:09;;;;;;;61.35;33.15;;;;;;;9.53;100.00;102414.00;10563301;28;20050;-66
2021/12/14 12:31:39;;;;;;;55.00;33.00;;;;;;;9.55;100.00;102413.03;10562477;28;20050;-65
2021/12/14 12:37:00;;;;;;;59.10;33.60;;;;;;;9.54;100.00;102418.31;10563391;28;20402;-66
2021/12/14 12:42:22;;;;;;;62.25;33.50;;;;;;;9.47;100.00;102414.19;10547311;28;20048;-66
2021/12/14 12:47:44;;;;;;;60.45;33.92;;;;;;;9.43;100.00;102420.44;10538755;27;20055;-65
2021/12/14 12:53:06;;;;;;;60.53;33.53;;;;;;;9.36;100.00;102416.31;10565019;27;20050;-66
2021/12/14 12:58:28;;;;;;;57.53;32.78;;;;;;;9.35;100.00;102426.81;10557552;27;20074;-67
2021/12/14 13:03:49;;;;;;;57.72;33.53;;;;;;;9.41;100.00;102427.44;10545268;27;20398;-67
2021/12/14 13:09:11;;;;;;;59.30;32.58;;;;;;;9.38;100.00;102427.53;10567344;27;20395;-67
2021/12/14 13:14:35;;;;;;;59.20;32.88;;;;;;;9.40;100.00;102432.69;10557661;28;20497;-67
2021/12/14 13:20:01;;;;;;;55.28;31.95;;;;;;;9.41;100.00;102432.66;10553203;27;20050;-67
2021/12/14 13:25:37;;;;;;;55.97;31.48;;;;;;;9.35;100.00;102422.44;10508427;28;20575;-66
2021/12/14 13:30:59;;;;;;;55.53;31.02;;;;;;;9.36;100.00;102424.13;10521992;28;20044;-66
2021/12/14 13:36:21;;;;;;;58.70;30.48;;;;;;;9.29;100.00;102438.28;10547393;28;20514;-66
2021/12/14 13:42:07;;;;;;;49.95;30.58;;;;;;;9.40;100.00;102425.75;10535374;28;20054;-66
2021/12/14 13:47:30;;;;;;;56.30;30.20;;;;;;;9.32;100.00;102427.72;10525668;28;20039;-66
2021/12/14 13:52:52;;;;;;;55.17;29.90;;;;;;;9.33;100.00;102424.22;10540038;28;20039;-66
2021/12/14 13:58:19;;;;;;;52.13;30.33;;;;;;;9.27;100.00;102434.88;10573222;28;20048;-66
2021/12/14 14:03:47;;;;;;;52.78;29.95;;;;;;;9.26;100.00;102435.75;10549395;28;20048;-66
2021/12/14 14:09:19;;;;;;;48.25;28.50;;;;;;;9.33;100.00;102439.00;10552338;28;20048;-66
2021/12/14 14:14:42;;;;;;;48.60;28.00;;;;;;;9.30;100.00;102433.91;10562342;28;20060;-66
2021/12/14 14:20:17;;;;;;;45.70;27.73;;;;;;;9.35;100.00;102442.41;10567184;28;20107;-65
2021/12/14 14:25:45;;;;;;;49.70;27.95;;;;;;;9.32;100.00;102437.31;10583062;28;20067;-66
2021/12/14 14:31:10;;;;;;;49.70;27.20;;;;;;;9.27;100.00;102440.06;10549685;28;20499;-66
2021/12/14 14:36:37;;;;;;;43.47;26.13;;;;;;;9.29;100.00;102433.06;10557449;28;20086;-67
2021/12/14 14:42:08;;;;;;;40.95;24.95;;;;;;;9.25;100.00;102428.84;10561091;28;20044;-66
2021/12/14 14:47:40;;;;;;;41.33;24.30;;;;;;;9.26;100.00;102427.09;10560861;28;20058;-66
2021/12/14 14:53:15;;;;;;;38.92;24.05;;;;;;;9.25;100.00;102452.28;10540308;28;20050;-66
2021/12/14 14:58:37;;;;;;;37.60;24.05;;;;;;;9.29;100.00;102451.28;10536858;28;20055;-66
2021/12/14 15:03:59;;;;;;;35.63;23.20;;;;;;;9.26;100.00;102448.78;10512049;28;20044;-66
2021/12/14 15:09:30;;;;;;;38.38;23.15;;;;;;;9.32;100.00;102452.91;10539827;28;20407;-64
2021/12/14 15:14:52;;;;;;;36.45;22.08;;;;;;;9.28;100.00;102457.38;10534004;28;20054;-65
2021/12/14 15:20:40;;;;;;;35.58;21.80;;;;;;;9.36;100.00;102460.56;10548946;28;20070;-65
2021/12/14 15:26:12;;;;;;;34.88;21.80;;;;;;;9.34;100.00;102456.31;10549302;28;20062;-66
2021/12/14 15:31:34;;;;;;;35.08;21.70;;;;;;;9.28;100.00;102452.19;10554147;28;20046;-65
2021/12/14 15:36:56;;;;;;;32.67;21.15;;;;;;;9.29;100.00;102453.88;10559772;28;20060;-64
2021/12/14 15:42:21;;;;;;;34.63;21.67;;;;;;;9.34;100.00;102451.13;10577841;27;20048;-65
2021/12/14 15:48:06;;;;;;;33.23;20.90;;;;;;;9.37;100.00;102441.44;10568475;28;20051;-65
2021/12/14 15:54:02;;;;;;;35.50;21.63;;;;;;;9.30;100.00;102439.97;10555734;28;20039;-65
2021/12/14 15:59:27;;;;;;;33.28;21.08;;;;;;;9.29;100.00;102438.28;10528468;28;20048;-65
2021/12/14 16:05:13;;;;;;;33.17;20.80;;;;;;;9.29;100.00;102438.28;10523274;28;20074;-65
2021/12/14 16:10:35;;;;;;;29.77;18.65;;;;;;;9.24;100.00;102450.56;10549593;28;20100;-65
2021/12/14 16:15:56;;;;;;;32.50;20.42;;;;;;;9.35;100.00;102451.06;10566037;28;20054;-66
2021/12/14 16:21:27;;;;;;;30.08;19.25;;;;;;;9.25;100.00;102461.81;10573007;28;20405;-65
2021/12/14 16:26:53;;;;;;;30.83;18.95;;;;;;;9.31;100.00;102467.69;10538849;28;20404;-65
2021/12/14 16:32:16;;;;;;;;;;;;;;;9.41;100.00;102474.28;10567023;28;20130;-65
2021/12/14 16:37:38;;;;;;;32.47;19.38;;;;;;;9.36;100.00;102485.75;10583136;27;19930;-65
2021/12/14 16:42:59;;;;;;;33.97;19.92;;;;;;;9.35;100.00;102478.84;10560227;28;20039;-65
2021/12/14 16:48:24;;;;;;;31.77;19.42;;;;;;;9.38;100.00;102484.78;10569554;28;20056;-65
2021/12/14 16:53:50;;;;;;;34.30;20.85;;;;;;;9.33;100.00;102476.28;10543684;28;20070;-64
2021/12/14 16:59:17;;;;;;;29.73;19.23;;;;;;;9.41;100.00;102479.50;10568028;28;20058;-63
2021/12/14 17:04:40;;;;;;;;;;;;;;;9.41;100.00;102479.50;10566340;27;20547;-63
2021/12/14 17:10:07;;;;;;;36.88;19.92;;;;;;;9.32;100.00;102474.56;10560386;28;19920;-66
2021/12/14 17:15:35;;;;;;;33.97;20.77;;;;;;;9.40;100.00;102477.78;10544295;28;20054;-65
2021/12/14 17:21:41;;;;;;;33.30;20.27;;;;;;;9.42;100.00;102485.53;10531255;28;20056;-65
2021/12/14 17:27:14;;;;;;;36.67;20.80;;;;;;;9.38;100.00;102490.00;10532452;28;20043;-65
2021/12/14 17:32:38;;;;;;;31.92;20.13;;;;;;;9.35;100.00;102500.50;10573019;28;20054;-65
2021/12/14 17:38:04;;;;;;;34.58;20.08;;;;;;;9.32;100.00;102503.19;10564787;28;20054;-63
2021/12/14 17:43:26;;;;;;;31.42;18.83;;;;;;;9.40;100.00;102498.59;10525419;28;20056;-63
2021/12/14 17:48:48;;;;;;;32.80;19.52;;;;;;;9.28;100.00;102498.16;10512455;28;20071;-63
2021/12/14 17:54:42;;;;;;;30.92;18.73;;;;;;;9.24;100.00;102501.78;10549714;28;20538;-63
2021/12/14 18:00:25;;;;;;;30.80;19.00;;;;;;;9.32;100.00;102504.97;10566135;28;20067;-63
2021/12/14 18:05:54;;;;;;;29.98;18.33;;;;;;;9.33;100.00;102491.88;10578645;27;20450;-63
2021/12/14 18:11:21;;;;;;;35.42;20.42;;;;;;;9.29;100.00;102505.94;10547771;28;20047;-63
2021/12/14 18:16:52;;;;;;;31.25;18.75;;;;;;;9.31;100.00;102514.53;10573086;28;20050;-63
2021/12/14 18:22:22;;;;;;;33.13;19.65;;;;;;;9.33;100.00;102509.28;10576299;28;20043;-65
2021/12/14 18:27:48;;;;;;;36.50;20.38;;;;;;;9.46;100.00;102516.59;10524688;28;20044;-65
2021/12/14 18:33:14;;;;;;;37.00;20.80;;;;;;;9.37;100.00;102514.31;10539716;27;20043;-66
2021/12/14 18:38:36;;;;;;;38.38;21.67;;;;;;;9.37;100.00;102519.53;10551298;27;20051;-66
2021/12/14 18:43:58;;;;;;;38.92;21.23;;;;;;;9.32;100.00;102511.00;10564438;27;20044;-65
2021/12/14 18:49:44;;;;;;;42.50;21.73;;;;;;;9.33;100.00;102514.47;10554405;28;20066;-65
2021/12/14 18:55:14;;;;;;;39.05;21.05;;;;;;;9.26;100.00;102511.22;10563391;28;20056;-63
2021/12/14 19:00:44;;;;;;;38.08;21.33;;;;;;;9.36;100.00;102512.63;10559957;28;20058;-64
2021/12/14 19:06:13;;;;;;;45.97;21.90;;;;;;;9.29;100.00;102516.34;10567532;28;20443;-66
2021/12/14 19:11:36;;;;;;;34.78;20.13;;;;;;;9.27;100.00;102525.94;10568816;28;20546;-65
2021/12/14 19:17:04;;;;;;;34.55;19.90;;;;;;;9.33;100.00;102525.72;10538344;28;20143;-65
2021/12/14 19:22:25;;;;;;;32.00;19.25;;;;;;;9.32;100.00;102538.78;10564929;28;20471;-65
2021/12/14 19:27:47;;;;;;;31.92;19.15;;;;;;;9.37;100.00;102529.94;10536945;28;20047;-65
2021/12/14 19:33:09;;;;;;;32.33;19.15;;;;;;;9.31;100.00;102526.69;10546404;28;20043;-65
2021/12/14 19:38:34;;;;;;;32.47;18.77;;;;;;;9.38;100.00;102525.59;10544722;28;20082;-65
2021/12/14 19:44:04;;;;;;;32.63;18.67;;;;;;;9.33;100.00;102528.31;10550773;28;20043;-66
2021/12/14 19:49:32;;;;;;;31.27;17.90;;;;;;;9.39;100.00;102538.53;10563820;27;20065;-65
2021/12/14 19:54:59;;;;;;;31.55;18.27;;;;;;;9.34;100.00;102553.44;10564532;28;20079;-65
2021/12/14 20:00:33;;;;;;;31.40;18.90;;;;;;;9.38;100.00;102549.84;10540426;28;20059;-65
2021/12/14 20:06:00;;;;;;;38.53;20.27;;;;;;;9.42;100.00;102559.28;10539659;28;20051;-65
2021/12/14 20:11:29;;;;;;;38.80;20.55;;;;;;;9.44;100.00;102557.47;10555907;28;20040;-65
2021/12/14 20:16:53;;;;;;;37.97;20.95;;;;;;;9.52;100.00;102570.25;10552011;28;20423;-65
2021/12/14 20:22:17;;;;;;;40.40;20.65;;;;;;;9.41;100.00;102560.19;10521934;28;20044;-65
2021/12/14 20:27:42;;;;;;;44.17;23.45;;;;;;;9.46;100.00;102554.81;10537852;28;20059;-65
2021/12/14 20:33:04;;;;;;;41.63;22.60;;;;;;;9.48;100.00;102563.44;10553425;28;20051;-63
2021/12/14 20:38:27;;;;;;;48.47;24.77;;;;;;;9.40;100.00;102555.00;10563513;28;20056;-63
2021/12/14 20:44:09;;;;;;;45.70;24.30;;;;;;;9.43;100.00;102566.19;10523850;28;20055;-65
2021/12/14 20:49:40;;;;;;;47.47;23.17;;;;;;;9.37;100.00;102557.72;10558892;28;20058;-65
2021/12/14 20:55:18;;;;;;;42.35;22.98;;;;;;;9.40;100.00;102560.19;10564052;28;20047;-64
2021/12/14 21:00:48;;;;;;;49.58;23.60;;;;;;;9.51;100.00;102566.78;10563621;28;20039;-65
2021/12/14 21:06:18;;;;;;;47.28;23.17;;;;;;;9.50;100.00;102554.66;10521748;28;20048;-65
2021/12/14 21:11:47;;;;;;;42.83;22.83;;;;;;;9.54;100.00;102564.09;10539059;28;20051;-65
2021/12/14 21:17:12;;;;;;;44.35;22.75;;;;;;;9.54;100.00;102564.09;10534439;28;20044;-65
2021/12/14 21:22:39;;;;;;;43.83;21.45;;;;;;;9.48;100.00;102551.25;10522232;28;20048;-65
2021/12/14 21:28:08;;;;;;;46.88;21.88;;;;;;;9.49;100.00;102554.72;10525567;28;20054;-65
2021/12/14 21:33:45;;;;;;;44.65;21.23;;;;;;;9.53;100.00;102554.56;10554907;28;20052;-65
2021/12/14 21:39:16;;;;;;;42.53;20.25;;;;;;;9.55;100.00;102544.97;10554737;28;20059;-65
2021/12/14 21:44:59;;;;;;;52.55;21.27;;;;;;;9.54;100.00;102548.47;10548582;28;20181;-66
2021/12/14 21:50:21;;;;;;;46.55;20.83;;;;;;;9.50;100.00;102548.63;10553913;28;20050;-65
2021/12/14 21:55:43;;;;;;;42.58;21.15;;;;;;;9.54;100.00;102554.50;10580687;28;20048;-64
2021/12/14 22:01:06;;;;;;;46.05;20.95;;;;;;;9.53;100.00;102552.78;10562760;28;20077;-65
2021/12/14 22:06:28;;;;;;;45.10;21.65;;;;;;;9.58;100.00;102563.94;10519466;28;20055;-65
2021/12/14 22:11:58;;;;;;;46.25;21.85;;;;;;;9.67;100.00;102570.59;10552625;28;20044;-64
2021/12/14 22:17:20;;;;;;;47.92;21.95;;;;;;;9.61;100.00;102571.63;10561636;28;20059;-64
2021/12/14 22:22:43;;;;;;;48.17;21.50;;;;;;;9.60;100.00;102563.88;10547881;28;20411;-64
2021/12/14 22:28:05;;;;;;;45.67;20.45;;;;;;;9.65;100.00;102573.25;10561858;28;20059;-64
2021/12/14 22:33:28;;;;;;;45.00;21.48;;;;;;;9.68;100.00;102572.28;10555308;28;20051;-64
2021/12/14 22:38:53;;;;;;;42.40;20.13;;;;;;;9.71;100.00;102574.78;10569465;28;20074;-64
2021/12/14 22:44:16;;;;;;;42.60;20.37;;;;;;;9.77;100.00;102564.16;10518708;28;20040;-64
2021/12/14 22:49:38;;;;;;;43.90;20.92;;;;;;;9.74;100.00;102570.34;10533138;28;20052;-64
2021/12/14 22:55:06;;;;;;;43.25;19.52;;;;;;;9.77;100.00;102571.97;10538959;28;20054;-63
2021/12/14 23:00:41;;;;;;;47.63;20.08;;;;;;;9.79;100.00;102560.63;10541950;28;20063;-64
2021/12/14 23:06:04;;;;;;;;;;;;;;;9.76;100.00;102554.63;10522023;28;20116;-63
2021/12/14 23:11:26;;;;;;;44.38;20.85;;;;;;;9.83;100.00;102558.75;10550707;28;19931;-63
2021/12/14 23:16:55;;;;;;;43.05;19.42;;;;;;;9.76;100.00;102575.47;10519227;27;20055;-63
2021/12/14 23:22:22;;;;;;;45.70;21.70;;;;;;;9.85;100.00;102570.81;10532045;28;20062;-63
2021/12/14 23:27:45;;;;;;;45.67;20.25;;;;;;;9.78;100.00;102566.72;10525041;28;20051;-62
2021/12/14 23:33:08;;;;;;;48.65;21.85;;;;;;;9.84;100.00;102574.31;10538228;27;20598;-62
2021/12/14 23:38:36;;;;;;;47.47;21.77;;;;;;;9.89;100.00;102567.22;10542782;27;20502;-62
2021/12/14 23:44:02;;;;;;;48.83;22.02;;;;;;;9.93;100.00;102565.34;10536444;28;20059;-65
2021/12/14 23:49:24;;;;;;;;;;;;;;;9.93;100.00;102562.75;10543231;28;20055;-63
2021/12/14 23:54:46;;;;;;;50.08;21.00;;;;;;;9.88;100.00;102554.25;10530731;27;19958;-63
